sensor_id;sensor_type;location;lat;lon;timestamp;P1;durP1;ratioP1;P2;durP2;ratioP2
17965;SDS011;9108;53.204;10.424;2024-03-08T05:02:02;71.25;;;26.38;;
17965;SDS011;9108;53.204;10.424;2024-03-08T05:04:29;68.43;;;25.58;;
17965;SDS011;9108;53.204;10.424;2024-03-08T05:06:57;71.18;;;26.77;;
17965;SDS011;9108;53.204;10.424;2024-03-08T05:09:26;68.72;;;26.02;;
17965;SDS011;9108;53.204;10.424;2024-03-08T05:11:54;69.75;;;25.90;;
17965;SDS011;9108;53.204;10.424;2024-03-08T05:14:21;65.40;;;25.60;;
17965;SDS011;9108;53.204;10.424;2024-03-08T05:16:50;69.18;;;26.40;;
17965;SDS011;9108;53.204;10.424;2024-03-08T05:19:19;73.88;;;26.13;;
17965;SDS011;9108;53.204;10.424;2024-03-08T05:21:47;71.63;;;26.20;;
17965;SDS011;9108;53.204;10.424;2024-03-08T05:24:14;66.88;;;26.25;;
17965;SDS011;9108;53.204;10.424;2024-03-08T05:26:41;69.13;;;26.38;;
17965;SDS011;9108;53.204;10.424;2024-03-08T05:29:08;70.05;;;26.45;;
17965;SDS011;9108;53.204;10.424;2024-03-08T05:31:38;72.97;;;26.48;;
17965;SDS011;9108;53.204;10.424;2024-03-08T05:34:11;73.47;;;27.35;;
17965;SDS011;9108;53.204;10.424;2024-03-08T05:36:41;78.50;;;27.35;;
17965;SDS011;9108;53.204;10.424;2024-03-08T05:39:12;72.93;;;27.00;;
17965;SDS011;9108;53.204;10.424;2024-03-08T05:41:39;72.38;;;27.20;;
17965;SDS011;9108;53.204;10.424;2024-03-08T05:44:09;72.72;;;27.27;;
17965;SDS011;9108;53.204;10.424;2024-03-08T05:46:37;75.60;;;27.10;;
17965;SDS011;9108;53.204;10.424;2024-03-08T05:49:04;76.25;;;28.10;;
17965;SDS011;9108;53.204;10.424;2024-03-08T05:51:31;73.57;;;28.38;;
17965;SDS011;9108;53.204;10.424;2024-03-08T05:54:00;78.70;;;28.97;;
17965;SDS011;9108;53.204;10.424;2024-03-08T05:56:28;73.22;;;28.15;;
17965;SDS011;9108;53.204;10.424;2024-03-08T05:58:56;76.82;;;28.83;;
17965;SDS011;9108;53.204;10.424;2024-03-08T06:01:24;76.17;;;28.37;;
17965;SDS011;9108;53.204;10.424;2024-03-08T06:03:51;75.22;;;28.33;;
17965;SDS011;9108;53.204;10.424;2024-03-08T06:06:21;77.57;;;28.95;;
17965;SDS011;9108;53.204;10.424;2024-03-08T06:08:48;70.60;;;26.92;;
17965;SDS011;9108;53.204;10.424;2024-03-08T06:11:17;67.40;;;26.75;;
17965;SDS011;9108;53.204;10.424;2024-03-08T06:13:44;72.32;;;27.30;;
17965;SDS011;9108;53.204;10.424;2024-03-08T06:16:11;68.55;;;27.02;;
17965;SDS011;9108;53.204;10.424;2024-03-08T06:18:38;65.95;;;25.80;;
17965;SDS011;9108;53.204;10.424;2024-03-08T06:21:06;69.65;;;26.75;;
17965;SDS011;9108;53.204;10.424;2024-03-08T06:23:34;71.80;;;27.55;;
17965;SDS011;9108;53.204;10.424;2024-03-08T06:26:03;72.55;;;28.10;;
17965;SDS011;9108;53.204;10.424;2024-03-08T06:28:32;70.78;;;27.50;;
17965;SDS011;9108;53.204;10.424;2024-03-08T06:30:59;76.25;;;28.33;;
17965;SDS011;9108;53.204;10.424;2024-03-08T06:33:27;70.83;;;26.93;;
17965;SDS011;9108;53.204;10.424;2024-03-08T06:35:54;67.38;;;26.52;;
17965;SDS011;9108;53.204;10.424;2024-03-08T06:38:22;63.60;;;25.63;;
17965;SDS011;9108;53.204;10.424;2024-03-08T06:40:49;61.22;;;25.95;;
17965;SDS011;9108;53.204;10.424;2024-03-08T06:43:17;64.93;;;25.45;;
17965;SDS011;9108;53.204;10.424;2024-03-08T06:45:46;62.03;;;24.90;;
17965;SDS011;9108;53.204;10.424;2024-03-08T06:48:14;59.78;;;24.58;;
17965;SDS011;9108;53.204;10.424;2024-03-08T06:50:42;55.65;;;23.13;;
17965;SDS011;9108;53.204;10.424;2024-03-08T06:53:09;54.17;;;22.20;;
17965;SDS011;9108;53.204;10.424;2024-03-08T06:55:37;47.75;;;20.75;;
17965;SDS011;9108;53.204;10.424;2024-03-08T06:58:04;48.00;;;20.13;;
17965;SDS011;9108;53.204;10.424;2024-03-08T07:00:32;45.92;;;19.63;;
17965;SDS011;9108;53.204;10.424;2024-03-08T07:03:00;42.47;;;19.85;;
17965;SDS011;9108;53.204;10.424;2024-03-08T07:05:27;42.80;;;19.23;;
17965;SDS011;9108;53.204;10.424;2024-03-08T07:07:55;41.85;;;18.85;;
17965;SDS011;9108;53.204;10.424;2024-03-08T07:10:22;47.50;;;19.98;;
17965;SDS011;9108;53.204;10.424;2024-03-08T07:12:49;45.63;;;19.88;;
17965;SDS011;9108;53.204;10.424;2024-03-08T07:15:16;46.22;;;19.27;;
17965;SDS011;9108;53.204;10.424;2024-03-08T07:17:44;45.22;;;20.38;;
17965;SDS011;9108;53.204;10.424;2024-03-08T07:20:13;43.97;;;19.55;;
17965;SDS011;9108;53.204;10.424;2024-03-08T07:22:43;41.33;;;18.35;;
17965;SDS011;9108;53.204;10.424;2024-03-08T07:25:12;37.50;;;17.70;;
17965;SDS011;9108;53.204;10.424;2024-03-08T07:27:49;37.80;;;17.20;;
17965;SDS011;9108;53.204;10.424;2024-03-08T07:30:22;37.22;;;17.33;;
17965;SDS011;9108;53.204;10.424;2024-03-08T07:33:07;42.15;;;18.20;;
17965;SDS011;9108;53.204;10.424;2024-03-08T07:35:38;36.92;;;17.50;;
17965;SDS011;9108;53.204;10.424;2024-03-08T07:38:05;36.63;;;17.88;;
17965;SDS011;9108;53.204;10.424;2024-03-08T07:40:34;36.65;;;17.75;;
17965;SDS011;9108;53.204;10.424;2024-03-08T07:43:03;39.28;;;18.10;;
17965;SDS011;9108;53.204;10.424;2024-03-08T07:45:30;38.47;;;18.02;;
17965;SDS011;9108;53.204;10.424;2024-03-08T07:47:57;38.65;;;17.85;;
17965;SDS011;9108;53.204;10.424;2024-03-08T07:50:24;35.60;;;17.25;;
17965;SDS011;9108;53.204;10.424;2024-03-08T07:52:53;39.33;;;18.02;;
17965;SDS011;9108;53.204;10.424;2024-03-08T07:55:20;38.33;;;17.48;;
17965;SDS011;9108;53.204;10.424;2024-03-08T07:57:49;36.38;;;17.20;;
17965;SDS011;9108;53.204;10.424;2024-03-08T08:00:16;38.50;;;17.90;;
17965;SDS011;9108;53.204;10.424;2024-03-08T08:02:44;36.35;;;17.52;;
17965;SDS011;9108;53.204;10.424;2024-03-08T08:05:11;35.80;;;17.65;;
17965;SDS011;9108;53.204;10.424;2024-03-08T08:07:39;36.63;;;17.60;;
17965;SDS011;9108;53.204;10.424;2024-03-08T08:10:10;41.08;;;17.55;;
17965;SDS011;9108;53.204;10.424;2024-03-08T08:12:43;37.13;;;17.38;;
17965;SDS011;9108;53.204;10.424;2024-03-08T08:15:10;38.00;;;17.23;;
17965;SDS011;9108;53.204;10.424;2024-03-08T08:17:37;36.38;;;16.90;;
17965;SDS011;9108;53.204;10.424;2024-03-08T08:20:05;36.35;;;17.25;;
17965;SDS011;9108;53.204;10.424;2024-03-08T08:22:33;37.10;;;17.42;;
17965;SDS011;9108;53.204;10.424;2024-03-08T08:25:00;37.85;;;17.65;;
17965;SDS011;9108;53.204;10.424;2024-03-08T08:27:29;38.17;;;17.90;;
17965;SDS011;9108;53.204;10.424;2024-03-08T08:29:56;34.92;;;17.02;;
17965;SDS011;9108;53.204;10.424;2024-03-08T08:32:23;37.15;;;17.23;;
17965;SDS011;9108;53.204;10.424;2024-03-08T08:34:51;39.90;;;18.02;;
17965;SDS011;9108;53.204;10.424;2024-03-08T08:37:18;37.58;;;17.40;;
17965;SDS011;9108;53.204;10.424;2024-03-08T08:39:44;36.17;;;17.40;;
17965;SDS011;9108;53.204;10.424;2024-03-08T08:42:11;36.97;;;17.92;;
17965;SDS011;9108;53.204;10.424;2024-03-08T08:44:40;37.70;;;17.95;;
17965;SDS011;9108;53.204;10.424;2024-03-08T08:47:07;38.50;;;18.20;;
17965;SDS011;9108;53.204;10.424;2024-03-08T08:49:34;34.00;;;17.70;;
17965;SDS011;9108;53.204;10.424;2024-03-08T08:52:03;38.65;;;18.23;;
17965;SDS011;9108;53.204;10.424;2024-03-08T08:54:30;37.33;;;18.60;;
17965;SDS011;9108;53.204;10.424;2024-03-08T08:56:57;38.95;;;18.52;;
17965;SDS011;9108;53.204;10.424;2024-03-08T08:59:24;38.03;;;18.20;;
17965;SDS011;9108;53.204;10.424;2024-03-08T09:01:53;37.55;;;18.23;;
17965;SDS011;9108;53.204;10.424;2024-03-08T09:04:20;38.38;;;18.75;;
17965;SDS011;9108;53.204;10.424;2024-03-08T09:06:48;38.30;;;18.83;;
17965;SDS011;9108;53.204;10.424;2024-03-08T09:09:15;40.60;;;18.80;;
17965;SDS011;9108;53.204;10.424;2024-03-08T09:11:42;39.05;;;18.50;;
17965;SDS011;9108;53.204;10.424;2024-03-08T09:14:09;37.22;;;17.75;;
17965;SDS011;9108;53.204;10.424;2024-03-08T09:16:37;35.13;;;17.63;;
17965;SDS011;9108;53.204;10.424;2024-03-08T09:19:05;35.95;;;18.00;;
17965;SDS011;9108;53.204;10.424;2024-03-08T09:21:32;33.22;;;17.40;;
17965;SDS011;9108;53.204;10.424;2024-03-08T09:24:01;37.88;;;18.33;;
17965;SDS011;9108;53.204;10.424;2024-03-08T09:26:28;33.53;;;17.48;;
17965;SDS011;9108;53.204;10.424;2024-03-08T09:28:55;35.75;;;17.85;;
17965;SDS011;9108;53.204;10.424;2024-03-08T09:31:23;38.55;;;19.05;;
17965;SDS011;9108;53.204;10.424;2024-03-08T09:33:50;36.17;;;18.75;;
17965;SDS011;9108;53.204;10.424;2024-03-08T09:36:19;35.55;;;18.10;;
17965;SDS011;9108;53.204;10.424;2024-03-08T09:38:46;34.40;;;18.00;;
17965;SDS011;9108;53.204;10.424;2024-03-08T09:41:15;39.45;;;18.73;;
17965;SDS011;9108;53.204;10.424;2024-03-08T09:43:42;35.10;;;18.20;;
17965;SDS011;9108;53.204;10.424;2024-03-08T09:46:09;37.42;;;18.13;;
17965;SDS011;9108;53.204;10.424;2024-03-08T09:48:37;35.78;;;17.98;;
17965;SDS011;9108;53.204;10.424;2024-03-08T09:51:06;34.75;;;17.40;;
17965;SDS011;9108;53.204;10.424;2024-03-08T09:53:39;37.65;;;18.45;;
17965;SDS011;9108;53.204;10.424;2024-03-08T09:56:07;37.53;;;17.95;;
17965;SDS011;9108;53.204;10.424;2024-03-08T09:58:34;35.58;;;17.90;;
17965;SDS011;9108;53.204;10.424;2024-03-08T10:01:19;37.65;;;18.42;;
17965;SDS011;9108;53.204;10.424;2024-03-08T10:03:46;35.00;;;17.65;;
17965;SDS011;9108;53.204;10.424;2024-03-08T10:06:15;33.15;;;17.63;;
17965;SDS011;9108;53.204;10.424;2024-03-08T10:08:43;36.65;;;17.63;;
17965;SDS011;9108;53.204;10.424;2024-03-08T10:11:11;33.85;;;17.35;;
17965;SDS011;9108;53.204;10.424;2024-03-08T10:13:38;36.45;;;17.67;;
17965;SDS011;9108;53.204;10.424;2024-03-08T10:16:06;31.58;;;16.20;;
17965;SDS011;9108;53.204;10.424;2024-03-08T10:18:33;31.38;;;16.77;;
17965;SDS011;9108;53.204;10.424;2024-03-08T10:21:03;34.55;;;18.25;;
17965;SDS011;9108;53.204;10.424;2024-03-08T10:23:32;31.67;;;16.65;;
17965;SDS011;9108;53.204;10.424;2024-03-08T10:26:14;36.08;;;17.45;;
17965;SDS011;9108;53.204;10.424;2024-03-08T10:28:41;32.65;;;16.30;;
17965;SDS011;9108;53.204;10.424;2024-03-08T10:31:09;32.90;;;16.60;;
17965;SDS011;9108;53.204;10.424;2024-03-08T10:33:36;32.75;;;16.33;;
17965;SDS011;9108;53.204;10.424;2024-03-08T10:36:05;31.00;;;16.55;;
17965;SDS011;9108;53.204;10.424;2024-03-08T10:38:34;34.10;;;16.15;;
17965;SDS011;9108;53.204;10.424;2024-03-08T10:41:02;31.50;;;16.10;;
17965;SDS011;9108;53.204;10.424;2024-03-08T10:43:33;34.40;;;16.75;;
17965;SDS011;9108;53.204;10.424;2024-03-08T10:46:08;32.92;;;16.20;;
17965;SDS011;9108;53.204;10.424;2024-03-08T10:48:43;33.95;;;16.17;;
17965;SDS011;9108;53.204;10.424;2024-03-08T10:51:11;32.67;;;16.50;;
17965;SDS011;9108;53.204;10.424;2024-03-08T10:53:38;30.10;;;15.48;;
17965;SDS011;9108;53.204;10.424;2024-03-08T10:56:07;31.52;;;15.93;;
17965;SDS011;9108;53.204;10.424;2024-03-08T10:58:41;33.50;;;16.15;;
17965;SDS011;9108;53.204;10.424;2024-03-08T11:01:10;32.97;;;16.80;;
17965;SDS011;9108;53.204;10.424;2024-03-08T11:03:45;32.03;;;16.60;;
17965;SDS011;9108;53.204;10.424;2024-03-08T11:06:15;31.88;;;16.42;;
17965;SDS011;9108;53.204;10.424;2024-03-08T11:08:43;31.15;;;16.55;;
17965;SDS011;9108;53.204;10.424;2024-03-08T11:14:01;31.67;;;16.20;;
17965;SDS011;9108;53.204;10.424;2024-03-08T11:16:39;31.48;;;15.98;;
17965;SDS011;9108;53.204;10.424;2024-03-08T11:19:23;31.98;;;16.15;;
17965;SDS011;9108;53.204;10.424;2024-03-08T11:21:58;31.58;;;16.23;;
17965;SDS011;9108;53.204;10.424;2024-03-08T11:24:26;31.65;;;16.17;;
17965;SDS011;9108;53.204;10.424;2024-03-08T11:26:54;29.38;;;15.38;;
17965;SDS011;9108;53.204;10.424;2024-03-08T11:29:35;31.35;;;16.35;;
17965;SDS011;9108;53.204;10.424;2024-03-08T11:32:08;31.23;;;16.73;;
17965;SDS011;9108;53.204;10.424;2024-03-08T11:34:35;28.10;;;14.90;;
17965;SDS011;9108;53.204;10.424;2024-03-08T11:37:03;32.13;;;15.73;;
17965;SDS011;9108;53.204;10.424;2024-03-08T11:39:34;28.98;;;16.02;;
17965;SDS011;9108;53.204;10.424;2024-03-08T11:42:03;33.70;;;16.08;;
17965;SDS011;9108;53.204;10.424;2024-03-08T11:44:29;30.30;;;15.65;;
17965;SDS011;9108;53.204;10.424;2024-03-08T11:46:58;32.08;;;16.25;;
17965;SDS011;9108;53.204;10.424;2024-03-08T11:49:25;32.45;;;16.63;;
17965;SDS011;9108;53.204;10.424;2024-03-08T11:51:52;33.00;;;15.95;;
17965;SDS011;9108;53.204;10.424;2024-03-08T11:54:21;30.52;;;15.93;;
17965;SDS011;9108;53.204;10.424;2024-03-08T11:56:51;31.83;;;15.83;;
17965;SDS011;9108;53.204;10.424;2024-03-08T11:59:21;28.50;;;15.05;;
17965;SDS011;9108;53.204;10.424;2024-03-08T12:02:01;29.98;;;15.07;;
17965;SDS011;9108;53.204;10.424;2024-03-08T12:04:28;31.98;;;16.13;;
17965;SDS011;9108;53.204;10.424;2024-03-08T12:06:56;29.73;;;15.00;;
17965;SDS011;9108;53.204;10.424;2024-03-08T12:09:23;28.02;;;14.73;;
17965;SDS011;9108;53.204;10.424;2024-03-08T12:11:50;27.65;;;14.35;;
17965;SDS011;9108;53.204;10.424;2024-03-08T12:14:17;26.50;;;13.73;;
17965;SDS011;9108;53.204;10.424;2024-03-08T12:16:45;28.92;;;15.27;;
17965;SDS011;9108;53.204;10.424;2024-03-08T12:19:15;27.37;;;13.43;;
17965;SDS011;9108;53.204;10.424;2024-03-08T12:21:42;26.13;;;13.85;;
17965;SDS011;9108;53.204;10.424;2024-03-08T12:24:14;25.30;;;13.18;;
17965;SDS011;9108;53.204;10.424;2024-03-08T12:26:41;24.23;;;12.73;;
17965;SDS011;9108;53.204;10.424;2024-03-08T12:29:16;28.48;;;14.10;;
17965;SDS011;9108;53.204;10.424;2024-03-08T12:31:45;27.73;;;14.32;;
17965;SDS011;9108;53.204;10.424;2024-03-08T12:34:12;29.00;;;14.88;;
17965;SDS011;9108;53.204;10.424;2024-03-08T12:36:48;27.85;;;14.35;;
17965;SDS011;9108;53.204;10.424;2024-03-08T12:39:17;29.65;;;15.10;;
17965;SDS011;9108;53.204;10.424;2024-03-08T12:41:47;30.13;;;14.63;;
17965;SDS011;9108;53.204;10.424;2024-03-08T12:44:16;27.70;;;14.07;;
17965;SDS011;9108;53.204;10.424;2024-03-08T12:46:44;30.05;;;14.05;;
17965;SDS011;9108;53.204;10.424;2024-03-08T12:49:11;29.80;;;15.10;;
17965;SDS011;9108;53.204;10.424;2024-03-08T12:51:42;30.42;;;14.45;;
17965;SDS011;9108;53.204;10.424;2024-03-08T12:54:18;31.38;;;14.55;;
17965;SDS011;9108;53.204;10.424;2024-03-08T12:56:48;28.20;;;14.00;;
17965;SDS011;9108;53.204;10.424;2024-03-08T12:59:18;29.80;;;14.63;;
17965;SDS011;9108;53.204;10.424;2024-03-08T13:01:46;28.83;;;14.85;;
17965;SDS011;9108;53.204;10.424;2024-03-08T13:04:16;31.08;;;14.95;;
17965;SDS011;9108;53.204;10.424;2024-03-08T13:06:44;30.58;;;14.70;;
17965;SDS011;9108;53.204;10.424;2024-03-08T13:09:12;28.38;;;14.18;;
17965;SDS011;9108;53.204;10.424;2024-03-08T13:11:41;30.63;;;14.50;;
17965;SDS011;9108;53.204;10.424;2024-03-08T13:14:08;29.05;;;14.45;;
17965;SDS011;9108;53.204;10.424;2024-03-08T13:16:35;29.20;;;14.55;;
17965;SDS011;9108;53.204;10.424;2024-03-08T13:19:02;26.23;;;13.73;;
17965;SDS011;9108;53.204;10.424;2024-03-08T13:21:30;32.88;;;14.45;;
17965;SDS011;9108;53.204;10.424;2024-03-08T13:23:57;27.75;;;14.13;;
17965;SDS011;9108;53.204;10.424;2024-03-08T13:26:26;28.30;;;13.80;;
17965;SDS011;9108;53.204;10.424;2024-03-08T13:28:59;25.55;;;13.20;;
17965;SDS011;9108;53.204;10.424;2024-03-08T13:31:26;27.63;;;13.73;;
17965;SDS011;9108;53.204;10.424;2024-03-08T13:33:53;28.15;;;13.93;;
17965;SDS011;9108;53.204;10.424;2024-03-08T13:36:23;27.52;;;12.75;;
17965;SDS011;9108;53.204;10.424;2024-03-08T13:38:54;29.15;;;14.27;;
17965;SDS011;9108;53.204;10.424;2024-03-08T13:41:40;26.42;;;13.05;;
17965;SDS011;9108;53.204;10.424;2024-03-08T13:44:08;23.88;;;12.27;;
17965;SDS011;9108;53.204;10.424;2024-03-08T13:46:35;27.77;;;12.73;;
17965;SDS011;9108;53.204;10.424;2024-03-08T13:49:03;25.65;;;12.43;;
17965;SDS011;9108;53.204;10.424;2024-03-08T13:51:33;25.85;;;12.20;;
17965;SDS011;9108;53.204;10.424;2024-03-08T13:54:00;28.10;;;12.48;;
17965;SDS011;9108;53.204;10.424;2024-03-08T13:56:27;26.77;;;12.65;;
17965;SDS011;9108;53.204;10.424;2024-03-08T13:58:55;26.38;;;12.05;;
17965;SDS011;9108;53.204;10.424;2024-03-08T14:01:23;25.90;;;12.45;;
17965;SDS011;9108;53.204;10.424;2024-03-08T14:03:51;25.48;;;11.82;;
17965;SDS011;9108;53.204;10.424;2024-03-08T14:06:18;22.98;;;11.32;;
17965;SDS011;9108;53.204;10.424;2024-03-08T14:08:49;24.23;;;11.68;;
17965;SDS011;9108;53.204;10.424;2024-03-08T14:11:19;27.43;;;11.87;;
17965;SDS011;9108;53.204;10.424;2024-03-08T14:13:49;25.52;;;11.60;;
17965;SDS011;9108;53.204;10.424;2024-03-08T14:16:17;27.58;;;12.07;;
17965;SDS011;9108;53.204;10.424;2024-03-08T14:18:46;24.50;;;11.40;;
17965;SDS011;9108;53.204;10.424;2024-03-08T14:21:13;25.77;;;12.18;;
17965;SDS011;9108;53.204;10.424;2024-03-08T14:23:41;26.00;;;12.15;;
17965;SDS011;9108;53.204;10.424;2024-03-08T14:26:08;27.58;;;12.20;;
17965;SDS011;9108;53.204;10.424;2024-03-08T14:28:36;24.40;;;11.87;;
17965;SDS011;9108;53.204;10.424;2024-03-08T14:31:03;25.38;;;11.90;;
17965;SDS011;9108;53.204;10.424;2024-03-08T14:33:35;24.83;;;11.70;;
17965;SDS011;9108;53.204;10.424;2024-03-08T14:36:05;24.50;;;12.05;;
17965;SDS011;9108;53.204;10.424;2024-03-08T14:38:33;26.08;;;12.60;;
17965;SDS011;9108;53.204;10.424;2024-03-08T14:41:03;27.13;;;12.65;;
17965;SDS011;9108;53.204;10.424;2024-03-08T14:43:32;25.35;;;12.20;;
17965;SDS011;9108;53.204;10.424;2024-03-08T14:45:59;26.50;;;12.35;;
17965;SDS011;9108;53.204;10.424;2024-03-08T14:48:28;28.08;;;12.30;;
17965;SDS011;9108;53.204;10.424;2024-03-08T14:50:55;28.45;;;13.10;;
17965;SDS011;9108;53.204;10.424;2024-03-08T14:53:24;27.27;;;12.50;;
17965;SDS011;9108;53.204;10.424;2024-03-08T14:55:52;29.98;;;13.13;;
17965;SDS011;9108;53.204;10.424;2024-03-08T14:58:20;26.53;;;13.07;;
17965;SDS011;9108;53.204;10.424;2024-03-08T15:00:48;27.63;;;13.02;;
17965;SDS011;9108;53.204;10.424;2024-03-08T15:03:20;30.60;;;13.20;;
17965;SDS011;9108;53.204;10.424;2024-03-08T15:05:51;26.75;;;13.05;;
17965;SDS011;9108;53.204;10.424;2024-03-08T15:08:18;29.50;;;13.35;;
17965;SDS011;9108;53.204;10.424;2024-03-08T15:10:49;26.80;;;12.73;;
17965;SDS011;9108;53.204;10.424;2024-03-08T15:13:19;28.67;;;13.90;;
17965;SDS011;9108;53.204;10.424;2024-03-08T15:15:48;27.75;;;13.35;;
17965;SDS011;9108;53.204;10.424;2024-03-08T15:18:19;28.57;;;13.70;;
17965;SDS011;9108;53.204;10.424;2024-03-08T15:20:50;29.55;;;13.30;;
17965;SDS011;9108;53.204;10.424;2024-03-08T15:23:18;27.58;;;13.38;;
17965;SDS011;9108;53.204;10.424;2024-03-08T15:25:45;30.42;;;13.73;;
17965;SDS011;9108;53.204;10.424;2024-03-08T15:28:15;28.95;;;13.57;;
17965;SDS011;9108;53.204;10.424;2024-03-08T15:30:45;30.45;;;14.20;;
17965;SDS011;9108;53.204;10.424;2024-03-08T15:33:16;28.75;;;13.80;;
17965;SDS011;9108;53.204;10.424;2024-03-08T15:35:49;28.75;;;13.70;;
17965;SDS011;9108;53.204;10.424;2024-03-08T15:38:22;30.55;;;14.57;;
17965;SDS011;9108;53.204;10.424;2024-03-08T15:40:49;30.88;;;14.23;;
17965;SDS011;9108;53.204;10.424;2024-03-08T15:43:18;29.77;;;13.93;;
17965;SDS011;9108;53.204;10.424;2024-03-08T15:45:45;30.63;;;14.38;;
17965;SDS011;9108;53.204;10.424;2024-03-08T15:48:12;31.27;;;14.38;;
17965;SDS011;9108;53.204;10.424;2024-03-08T15:50:41;31.17;;;14.98;;
17965;SDS011;9108;53.204;10.424;2024-03-08T15:53:08;30.83;;;14.32;;
17965;SDS011;9108;53.204;10.424;2024-03-08T15:55:36;32.10;;;15.48;;
17965;SDS011;9108;53.204;10.424;2024-03-08T15:58:05;31.17;;;14.82;;
17965;SDS011;9108;53.204;10.424;2024-03-08T16:00:34;30.10;;;14.55;;
17965;SDS011;9108;53.204;10.424;2024-03-08T16:03:04;51.88;;;25.08;;
17965;SDS011;9108;53.204;10.424;2024-03-08T16:05:36;34.58;;;17.33;;
17965;SDS011;9108;53.204;10.424;2024-03-08T16:08:03;34.60;;;15.95;;
17965;SDS011;9108;53.204;10.424;2024-03-08T16:10:33;36.97;;;18.25;;
17965;SDS011;9108;53.204;10.424;2024-03-08T16:13:01;33.92;;;15.38;;
17965;SDS011;9108;53.204;10.424;2024-03-08T16:15:28;32.92;;;15.02;;
17965;SDS011;9108;53.204;10.424;2024-03-08T16:17:57;30.55;;;14.90;;
17965;SDS011;9108;53.204;10.424;2024-03-08T16:20:24;32.78;;;15.38;;
17965;SDS011;9108;53.204;10.424;2024-03-08T16:22:51;32.15;;;15.23;;
17965;SDS011;9108;53.204;10.424;2024-03-08T16:25:20;31.50;;;14.90;;
17965;SDS011;9108;53.204;10.424;2024-03-08T16:27:47;36.47;;;15.70;;
17965;SDS011;9108;53.204;10.424;2024-03-08T16:30:15;33.03;;;15.13;;
17965;SDS011;9108;53.204;10.424;2024-03-08T16:32:42;37.45;;;18.67;;
17965;SDS011;9108;53.204;10.424;2024-03-08T16:35:11;34.15;;;15.27;;
17965;SDS011;9108;53.204;10.424;2024-03-08T16:37:41;33.70;;;15.38;;
17965;SDS011;9108;53.204;10.424;2024-03-08T16:40:08;32.15;;;14.82;;
17965;SDS011;9108;53.204;10.424;2024-03-08T16:42:41;35.33;;;16.08;;
17965;SDS011;9108;53.204;10.424;2024-03-08T16:45:08;34.92;;;15.65;;
17965;SDS011;9108;53.204;10.424;2024-03-08T16:47:36;35.10;;;15.77;;
17965;SDS011;9108;53.204;10.424;2024-03-08T16:50:03;31.52;;;14.93;;
17965;SDS011;9108;53.204;10.424;2024-03-08T16:52:35;32.72;;;15.27;;
17965;SDS011;9108;53.204;10.424;2024-03-08T16:55:02;32.92;;;15.27;;
17965;SDS011;9108;53.204;10.424;2024-03-08T16:57:34;33.17;;;15.07;;
17965;SDS011;9108;53.204;10.424;2024-03-08T17:00:01;36.25;;;15.90;;
17965;SDS011;9108;53.204;10.424;2024-03-08T17:02:35;37.58;;;15.93;;
17965;SDS011;9108;53.204;10.424;2024-03-08T17:05:03;33.22;;;15.82;;
17965;SDS011;9108;53.204;10.424;2024-03-08T17:07:35;34.85;;;16.30;;
17965;SDS011;9108;53.204;10.424;2024-03-08T17:10:02;34.63;;;15.80;;
17965;SDS011;9108;53.204;10.424;2024-03-08T17:12:39;36.03;;;15.55;;
17965;SDS011;9108;53.204;10.424;2024-03-08T17:15:08;33.60;;;15.45;;
17965;SDS011;9108;53.204;10.424;2024-03-08T17:17:36;36.40;;;15.73;;
17965;SDS011;9108;53.204;10.424;2024-03-08T17:20:03;32.90;;;15.23;;
17965;SDS011;9108;53.204;10.424;2024-03-08T17:22:32;33.72;;;15.80;;
17965;SDS011;9108;53.204;10.424;2024-03-08T17:25:01;34.70;;;16.27;;
17965;SDS011;9108;53.204;10.424;2024-03-08T17:27:30;35.63;;;15.75;;
17965;SDS011;9108;53.204;10.424;2024-03-08T17:29:57;36.50;;;16.73;;
17965;SDS011;9108;53.204;10.424;2024-03-08T17:32:26;35.60;;;15.27;;
17965;SDS011;9108;53.204;10.424;2024-03-08T17:34:53;34.00;;;15.63;;
17965;SDS011;9108;53.204;10.424;2024-03-08T17:37:20;37.40;;;15.90;;
17965;SDS011;9108;53.204;10.424;2024-03-08T17:39:48;34.08;;;15.63;;
17965;SDS011;9108;53.204;10.424;2024-03-08T17:42:16;36.65;;;15.43;;
17965;SDS011;9108;53.204;10.424;2024-03-08T17:44:44;35.20;;;16.20;;
17965;SDS011;9108;53.204;10.424;2024-03-08T17:47:11;36.40;;;16.50;;
17965;SDS011;9108;53.204;10.424;2024-03-08T17:49:38;35.60;;;15.73;;
17965;SDS011;9108;53.204;10.424;2024-03-08T17:52:06;34.83;;;15.48;;
17965;SDS011;9108;53.204;10.424;2024-03-08T17:54:33;35.90;;;15.68;;
17965;SDS011;9108;53.204;10.424;2024-03-08T17:57:02;34.38;;;15.23;;
17965;SDS011;9108;53.204;10.424;2024-03-08T17:59:31;34.50;;;15.50;;
17965;SDS011;9108;53.204;10.424;2024-03-08T18:01:59;31.87;;;15.27;;
17965;SDS011;9108;53.204;10.424;2024-03-08T18:04:26;34.50;;;15.33;;
17965;SDS011;9108;53.204;10.424;2024-03-08T18:06:53;35.13;;;15.10;;
17965;SDS011;9108;53.204;10.424;2024-03-08T18:09:21;39.17;;;16.50;;
17965;SDS011;9108;53.204;10.424;2024-03-08T18:11:49;36.33;;;15.93;;
17965;SDS011;9108;53.204;10.424;2024-03-08T18:14:17;34.38;;;15.38;;
17965;SDS011;9108;53.204;10.424;2024-03-08T18:16:45;33.20;;;14.95;;
17965;SDS011;9108;53.204;10.424;2024-03-08T18:19:13;37.60;;;16.02;;
17965;SDS011;9108;53.204;10.424;2024-03-08T18:21:44;35.00;;;15.00;;
17965;SDS011;9108;53.204;10.424;2024-03-08T18:24:13;34.70;;;15.93;;
17965;SDS011;9108;53.204;10.424;2024-03-08T18:26:43;36.53;;;15.75;;
17965;SDS011;9108;53.204;10.424;2024-03-08T18:29:10;38.97;;;17.27;;
17965;SDS011;9108;53.204;10.424;2024-03-08T18:31:41;39.20;;;16.45;;
17965;SDS011;9108;53.204;10.424;2024-03-08T18:34:11;35.58;;;16.63;;
17965;SDS011;9108;53.204;10.424;2024-03-08T18:36:39;35.17;;;14.48;;
17965;SDS011;9108;53.204;10.424;2024-03-08T18:39:08;35.60;;;15.10;;
17965;SDS011;9108;53.204;10.424;2024-03-08T18:41:41;34.08;;;15.40;;
17965;SDS011;9108;53.204;10.424;2024-03-08T18:44:08;36.08;;;15.13;;
17965;SDS011;9108;53.204;10.424;2024-03-08T18:46:35;36.58;;;15.77;;
17965;SDS011;9108;53.204;10.424;2024-03-08T18:49:05;35.15;;;15.18;;
17965;SDS011;9108;53.204;10.424;2024-03-08T18:51:34;35.10;;;14.48;;
17965;SDS011;9108;53.204;10.424;2024-03-08T18:54:01;32.85;;;15.32;;
17965;SDS011;9108;53.204;10.424;2024-03-08T18:56:29;34.78;;;14.82;;
17965;SDS011;9108;53.204;10.424;2024-03-08T18:58:56;34.75;;;15.20;;
17965;SDS011;9108;53.204;10.424;2024-03-08T19:01:23;31.80;;;13.93;;
17965;SDS011;9108;53.204;10.424;2024-03-08T19:03:54;36.63;;;15.63;;
17965;SDS011;9108;53.204;10.424;2024-03-08T19:06:23;31.88;;;14.32;;
17965;SDS011;9108;53.204;10.424;2024-03-08T19:08:57;32.78;;;14.20;;
17965;SDS011;9108;53.204;10.424;2024-03-08T19:11:25;37.45;;;15.60;;
17965;SDS011;9108;53.204;10.424;2024-03-08T19:13:53;34.22;;;15.27;;
17965;SDS011;9108;53.204;10.424;2024-03-08T19:16:21;33.38;;;14.68;;
17965;SDS011;9108;53.204;10.424;2024-03-08T19:18:49;36.07;;;16.23;;
17965;SDS011;9108;53.204;10.424;2024-03-08T19:21:17;34.10;;;14.52;;
17965;SDS011;9108;53.204;10.424;2024-03-08T19:23:46;37.03;;;15.00;;
17965;SDS011;9108;53.204;10.424;2024-03-08T19:26:15;37.05;;;15.25;;
17965;SDS011;9108;53.204;10.424;2024-03-08T19:28:47;32.90;;;14.63;;
17965;SDS011;9108;53.204;10.424;2024-03-08T19:31:15;36.17;;;14.93;;
17965;SDS011;9108;53.204;10.424;2024-03-08T19:33:43;33.30;;;14.40;;